Time;durP1;ratioP1;P1;durP2;ratioP2;P2;SDS_P1;SDS_P2;PMS_P1;PMS_P2;Temp;Humidity;BMP_temperature;BMP_pressure;BME280_temperature;BME280_humidity;BME280_pressure;Samples;Min_cycle;Max_cycle;Signal;HPM_P1;HPM_P2
2023/04/29 00:02:01;;;;;;;0.10;0.10;;;9.50;99.90;;;;;;6183030;23;20017;-82
2023/04/29 00:04:10;;;;;;;0.20;0.20;;;9.30;99.90;;;;;;6179476;23;20036;-83
2023/04/29 00:06:36;;;;;;;0.20;0.20;;;9.40;99.90;;;;;;6198087;23;20024;-81
2023/04/29 00:12:04;;;;;;;0.10;0.10;;;9.40;99.90;;;;;;6183200;22;20017;-81
2023/04/29 00:18:17;;;;;;;0.13;0.13;;;9.40;99.90;;;;;;6094650;23;20075;-82
2023/04/29 00:20:44;;;;;;;0.10;0.10;;;9.40;99.90;;;;;;6120506;23;20017;-82
2023/04/29 00:23:25;;;;;;;0.10;0.10;;;10.10;99.90;;;;;;6182669;23;20330;-81
2023/04/29 00:26:16;;;;;;;0.17;0.17;;;9.30;99.90;;;;;;6182142;23;20083;-81
2023/04/29 00:28:41;;;;;;;0.20;0.20;;;9.30;99.90;;;;;;6181611;23;20104;-81
2023/04/29 00:31:07;;;;;;;0.10;0.10;;;9.50;99.90;;;;;;6179720;23;20087;-81
2023/04/29 00:33:37;;;;;;;0.20;0.20;;;9.30;99.90;;;;;;6181832;23;20071;-81
2023/04/29 00:36:03;;;;;;;0.20;0.20;;;9.30;99.90;;;;;;6180800;23;20005;-81
2023/04/29 00:38:28;;;;;;;0.10;0.10;;;9.30;99.90;;;;;;6182491;23;20710;-81
2023/04/29 00:40:58;;;;;;;0.20;0.20;;;9.30;99.90;;;;;;6181961;23;20025;-81
2023/04/29 00:43:24;;;;;;;0.10;0.10;;;9.40;99.90;;;;;;6181912;23;20017;-82
2023/04/29 00:45:50;;;;;;;0.20;0.20;;;9.30;99.90;;;;;;6180232;23;20096;-80
2023/04/29 00:48:16;;;;;;;0.20;0.20;;;9.30;99.90;;;;;;6182446;23;20044;-80
2023/04/29 00:50:57;;;;;;;;;;;;;;;;;;;;;
2023/04/29 00:53:48;;;;;;;0.17;0.17;;;9.20;99.90;;;;;;6172810;23;20021;-81
2023/04/29 00:56:23;;;;;;;0.20;0.20;;;9.20;99.90;;;;;;6180725;23;20044;-81
2023/04/29 00:58:51;;;;;;;0.20;0.20;;;9.20;99.90;;;;;;6182835;23;20476;-81
2023/04/29 01:01:35;;;;;;;0.20;0.20;;;9.20;99.90;;;;;;6179375;23;20013;-81
2023/04/29 01:04:06;;;;;;;0.20;0.20;;;9.40;99.90;;;;;;6182380;23;20017;-81
2023/04/29 01:07:11;;;;;;;0.20;0.20;;;9.10;99.90;;;;;;6183512;23;20017;-81
2023/04/29 01:10:00;;;;;;;0.10;0.10;;;9.10;99.90;;;;;;6181584;23;20052;-82
2023/04/29 01:13:04;;;;;;;0.20;0.20;;;9.10;99.90;;;;;;6182620;23;20025;-81
2023/04/29 01:15:57;;;;;;;0.20;0.20;;;9.10;99.90;;;;;;6182043;23;20337;-81
2023/04/29 01:18:31;;;;;;;0.20;0.20;;;8.50;99.90;;;;;;6182582;23;20013;-81
2023/04/29 01:21:15;;;;;;;0.10;0.10;;;9.10;99.90;;;;;;6183099;23;20021;-81
2023/04/29 01:23:41;;;;;;;0.20;0.20;;;9.10;99.90;;;;;;6182019;23;20096;-81
2023/04/29 01:26:10;;;;;;;0.20;0.20;;;9.10;99.90;;;;;;6179988;23;20055;-81
2023/04/29 01:29:23;;;;;;;0.15;0.15;;;9.50;99.90;;;;;;6185000;23;20017;-81
2023/04/29 01:32:43;;;;;;;0.10;0.10;;;9.00;99.90;;;;;;6183586;22;20017;-81
2023/04/29 01:36:01;;;;;;;0.20;0.20;;;9.00;99.90;;;;;;6120880;23;20100;-81
2023/04/29 01:39:20;;;;;;;0.20;0.20;;;9.70;99.90;;;;;;6096139;23;20018;-80
2023/04/29 01:42:27;;;;;;;0.10;0.10;;;8.90;99.90;;;;;;6097775;23;20036;-81
2023/04/29 01:44:59;;;;;;;0.10;0.10;;;8.90;99.90;;;;;;6096936;23;20021;-81
2023/04/29 01:47:27;;;;;;;0.10;0.10;;;9.30;99.90;;;;;;6099259;23;20022;-81
2023/04/29 01:49:52;;;;;;;0.15;0.15;;;8.80;99.90;;;;;;6110025;23;20022;-81
2023/04/29 01:52:24;;;;;;;0.10;0.10;;;8.80;99.90;;;;;;6149551;23;20044;-81
2023/04/29 01:54:50;;;;;;;0.13;0.13;;;8.70;99.90;;;;;;6129357;23;20124;-81
2023/04/29 01:57:16;;;;;;;0.10;0.10;;;8.90;99.90;;;;;;6128095;23;20405;-81
2023/04/29 01:59:54;;;;;;;0.10;0.10;;;8.20;99.90;;;;;;6123765;23;20014;-81
2023/04/29 02:02:25;;;;;;;0.10;0.10;;;9.40;99.90;;;;;;6124380;23;20547;-81
2023/04/29 02:04:57;;;;;;;0.10;0.10;;;8.80;99.90;;;;;;6124904;23;20421;-81
2023/04/29 02:07:29;;;;;;;0.20;0.20;;;8.50;99.90;;;;;;6148836;23;20017;-81
2023/04/29 02:10:10;;;;;;;0.10;0.10;;;8.50;99.90;;;;;;6149771;23;20021;-81
2023/04/29 02:12:36;;;;;;;0.20;0.20;;;8.80;99.90;;;;;;6125160;23;20553;-80
2023/04/29 02:15:08;;;;;;;0.10;0.10;;;8.40;99.90;;;;;;6153567;23;20047;-81
2023/04/29 02:17:34;;;;;;;0.10;0.10;;;8.40;99.90;;;;;;6186462;23;20009;-81
2023/04/29 02:20:09;;;;;;;0.10;0.10;;;8.40;99.90;;;;;;6212316;23;20023;-81
2023/04/29 02:22:44;;;;;;;0.10;0.10;;;8.30;99.90;;;;;;6183863;23;20017;-80
2023/04/29 02:25:13;;;;;;;0.10;0.10;;;8.30;99.90;;;;;;6185515;23;20016;-81
2023/04/29 02:27:42;;;;;;;0.10;0.10;;;8.30;99.90;;;;;;6210822;23;20074;-81
2023/04/29 02:30:14;;;;;;;0.15;0.15;;;9.20;99.90;;;;;;6211770;23;20090;-81
2023/04/29 02:32:57;;;;;;;0.10;0.10;;;8.30;99.90;;;;;;6189084;23;20020;-81
2023/04/29 02:35:23;;;;;;;0.10;0.10;;;8.30;99.90;;;;;;6209220;23;20392;-81
2023/04/29 02:37:58;;;;;;;0.20;0.20;;;8.90;99.90;;;;;;6211449;23;20026;-81
2023/04/29 02:40:25;;;;;;;0.20;0.20;;;8.30;99.90;;;;;;6211548;23;20020;-81
2023/04/29 02:43:06;;;;;;;0.15;0.15;;;8.30;99.90;;;;;;6140573;23;20509;-81
2023/04/29 02:45:54;;;;;;;0.10;0.10;;;8.60;99.90;;;;;;6207753;23;20873;-81
2023/04/29 02:48:19;;;;;;;0.20;0.20;;;8.30;99.90;;;;;;6209423;23;20684;-81
2023/04/29 02:50:45;;;;;;;0.10;0.10;;;8.30;99.90;;;;;;6204786;23;20355;-80
2023/04/29 02:53:11;;;;;;;0.10;0.10;;;8.30;99.90;;;;;;6212658;23;20054;-80
2023/04/29 02:55:39;;;;;;;0.10;0.10;;;8.70;99.90;;;;;;6210353;22;20055;-81
2023/04/29 02:58:09;;;;;;;0.10;0.10;;;8.30;99.90;;;;;;6186410;23;20023;-81
2023/04/29 03:00:40;;;;;;;0.10;0.10;;;8.40;99.90;;;;;;6185059;23;20479;-81
2023/04/29 03:03:06;;;;;;;0.10;0.10;;;9.00;99.90;;;;;;6212069;23;20333;-81
2023/04/29 03:05:31;;;;;;;0.20;0.20;;;8.40;99.90;;;;;;6213828;23;20028;-81
2023/04/29 03:08:01;;;;;;;0.20;0.20;;;8.90;99.90;;;;;;6187527;23;20052;-82
2023/04/29 03:10:27;;;;;;;0.20;0.20;;;8.50;99.90;;;;;;6213314;23;20012;-81
2023/04/29 03:12:52;;;;;;;0.15;0.15;;;8.50;99.90;;;;;;6185900;23;20346;-80
2023/04/29 03:15:28;;;;;;;0.20;0.20;;;8.90;99.90;;;;;;6185003;23;20021;-80
2023/04/29 03:17:54;;;;;;;0.20;0.20;;;9.00;99.90;;;;;;6186883;23;20024;-81
2023/04/29 03:20:38;;;;;;;0.20;0.20;;;8.50;99.90;;;;;;6212947;23;20067;-81
2023/04/29 03:25:30;;;;;;;0.10;0.10;;;8.50;99.90;;;;;;6244007;22;20444;-81
2023/04/29 03:28:05;;;;;;;0.10;0.10;;;8.50;99.90;;;;;;6218336;23;20012;-81
2023/04/29 03:30:41;;;;;;;0.10;0.10;;;8.50;99.90;;;;;;6217315;23;20016;-82
2023/04/29 03:33:09;;;;;;;0.10;0.10;;;8.00;99.90;;;;;;6222436;23;20023;-80
2023/04/29 03:35:35;;;;;;;0.20;0.20;;;8.60;99.90;;;;;;6245120;23;20028;-80
2023/04/29 03:38:04;;;;;;;0.20;0.20;;;8.50;99.90;;;;;;6224151;23;20009;-81
2023/04/29 03:40:39;;;;;;;0.10;0.10;;;9.30;99.90;;;;;;6214919;23;20047;-81
2023/04/29 03:43:06;;;;;;;0.20;0.20;;;8.60;99.90;;;;;;6215007;23;20017;-81
2023/04/29 03:45:47;;;;;;;0.10;0.10;;;9.20;99.90;;;;;;6213351;23;20051;-81
2023/04/29 03:48:14;;;;;;;0.10;0.10;;;8.50;99.90;;;;;;6214914;23;20070;-81
2023/04/29 03:50:40;;;;;;;0.20;0.20;;;8.60;99.90;;;;;;6214228;23;20028;-82
2023/04/29 03:53:07;;;;;;;0.20;0.20;;;9.50;99.90;;;;;;6214017;23;20107;-81
2023/04/29 03:55:32;;;;;;;0.15;0.15;;;9.40;99.90;;;;;;6242439;23;20020;-81
2023/04/29 03:58:02;;;;;;;0.20;0.20;;;9.30;99.90;;;;;;6216860;23;20015;-81
2023/04/29 04:00:30;;;;;;;0.10;0.10;;;8.60;99.90;;;;;;6215609;23;20419;-81
2023/04/29 04:02:56;;;;;;;0.20;0.20;;;8.60;99.90;;;;;;6218207;23;20019;-82
2023/04/29 04:05:24;;;;;;;0.17;0.17;;;9.50;99.90;;;;;;6217802;23;20020;-82
2023/04/29 04:07:54;;;;;;;0.10;0.10;;;8.80;99.90;;;;;;6244444;23;20425;-81
2023/04/29 04:10:34;;;;;;;0.10;0.10;;;8.70;99.90;;;;;;6244128;23;20473;-82
2023/04/29 04:13:06;;;;;;;0.10;0.10;;;9.00;99.90;;;;;;6242268;23;20012;-82
2023/04/29 04:15:32;;;;;;;0.10;0.10;;;8.60;99.90;;;;;;6239612;23;20023;-82
2023/04/29 04:18:16;;;;;;;0.10;0.10;;;8.70;99.90;;;;;;6215050;23;20012;-81
2023/04/29 04:20:48;;;;;;;0.20;0.20;;;8.70;99.90;;;;;;6242935;23;20169;-82
2023/04/29 04:23:14;;;;;;;0.17;0.17;;;8.70;99.90;;;;;;6215178;23;20058;-80
2023/04/29 04:25:56;;;;;;;0.20;0.20;;;8.90;99.90;;;;;;6231265;22;20028;-81
2023/04/29 04:28:31;;;;;;;0.20;0.20;;;8.70;99.90;;;;;;6211495;23;20258;-83
2023/04/29 04:31:01;;;;;;;0.20;0.20;;;9.90;99.90;;;;;;6184760;23;20008;-82
2023/04/29 04:33:26;;;;;;;0.10;0.10;;;8.70;99.90;;;;;;6214882;23;20012;-81
2023/04/29 04:35:52;;;;;;;0.10;0.10;;;9.60;99.90;;;;;;6213224;23;20081;-81
2023/04/29 04:38:18;;;;;;;0.10;0.10;;;8.70;99.90;;;;;;6187518;23;20021;-82
2023/04/29 04:40:44;;;;;;;0.10;0.10;;;8.10;99.90;;;;;;6186919;23;20044;-82
2023/04/29 04:43:10;;;;;;;0.20;0.20;;;9.50;99.90;;;;;;6185922;23;20051;-82
2023/04/29 04:45:38;;;;;;;0.10;0.10;;;9.60;99.90;;;;;;6210980;23;20074;-82
2023/04/29 04:48:04;;;;;;;0.10;0.10;;;8.70;99.90;;;;;;6186797;23;20062;-82
2023/04/29 04:50:33;;;;;;;0.20;0.20;;;8.70;99.90;;;;;;6188370;23;20055;-82
2023/04/29 04:52:59;;;;;;;0.17;0.17;;;9.20;99.90;;;;;;6213026;23;20058;-82
2023/04/29 04:55:25;;;;;;;0.10;0.10;;;8.70;99.90;;;;;;6213261;23;20020;-81
2023/04/29 04:57:51;;;;;;;0.10;0.10;;;8.80;99.90;;;;;;6189354;23;20012;-82
2023/04/29 05:00:41;;;;;;;0.10;0.10;;;8.80;99.90;;;;;;6187043;23;20013;-81
2023/04/29 05:03:28;;;;;;;0.10;0.10;;;8.80;99.90;;;;;;6188259;23;20512;-83
2023/04/29 05:05:58;;;;;;;0.17;0.17;;;8.30;99.90;;;;;;6188704;23;20031;-81
2023/04/29 05:08:25;;;;;;;0.10;0.10;;;8.80;99.90;;;;;;6215142;23;20019;-82
2023/04/29 05:10:54;;;;;;;0.20;0.20;;;8.80;99.90;;;;;;6186196;23;20461;-82
2023/04/29 05:13:20;;;;;;;0.20;0.20;;;8.80;99.90;;;;;;6188609;23;20013;-82
2023/04/29 05:15:45;;;;;;;0.20;0.20;;;8.80;99.90;;;;;;6181992;23;20104;-81
2023/04/29 05:18:11;;;;;;;0.20;0.20;;;8.80;99.90;;;;;;6216678;23;20044;-82
2023/04/29 05:20:37;;;;;;;0.20;0.20;;;9.10;99.90;;;;;;6237599;23;20012;-83
2023/04/29 05:23:12;;;;;;;0.20;0.20;;;8.80;99.90;;;;;;6204450;23;20518;-83
2023/04/29 05:25:38;;;;;;;0.20;0.20;;;8.80;99.90;;;;;;6211931;23;20017;-82
2023/04/29 05:28:04;;;;;;;0.20;0.20;;;8.90;99.90;;;;;;6186382;23;20095;-82
2023/04/29 05:30:30;;;;;;;0.20;0.20;;;8.90;99.90;;;;;;6183263;23;20919;-82
2023/04/29 05:33:02;;;;;;;0.13;0.13;;;8.00;99.90;;;;;;6185358;23;20047;-83
2023/04/29 05:35:28;;;;;;;0.10;0.10;;;8.90;99.90;;;;;;6186311;23;20413;-82
2023/04/29 05:38:06;;;;;;;0.10;0.10;;;8.70;99.90;;;;;;6182287;23;20441;-81
2023/04/29 05:40:38;;;;;;;0.20;0.20;;;8.90;99.90;;;;;;6184494;23;20021;-82
2023/04/29 05:43:03;;;;;;;0.20;0.20;;;8.90;99.90;;;;;;6185201;23;20096;-83
2023/04/29 05:45:51;;;;;;;0.10;0.10;;;9.00;99.90;;;;;;6183568;23;20052;-82
2023/04/29 05:48:39;;;;;;;0.20;0.20;;;7.90;99.90;;;;;;6185872;23;20021;-82
2023/04/29 05:51:10;;;;;;;0.10;0.10;;;8.40;99.90;;;;;;6185135;23;20060;-84
2023/04/29 05:53:37;;;;;;;0.10;0.10;;;9.20;99.90;;;;;;6211336;23;20376;-83
2023/04/29 05:56:15;;;;;;;0.10;0.10;;;9.30;99.90;;;;;;6180693;23;20092;-82
2023/04/29 05:58:47;;;;;;;0.20;0.20;;;9.20;99.90;;;;;;6210738;23;20341;-83
2023/04/29 06:01:13;;;;;;;0.10;0.10;;;9.30;99.90;;;;;;6182450;23;20449;-82
2023/04/29 06:06:09;;;;;;;0.20;0.20;;;9.40;99.90;;;;;;6241993;23;20027;-82
2023/04/29 06:08:43;;;;;;;0.10;0.10;;;9.30;99.90;;;;;;6242106;23;20428;-82
2023/04/29 06:11:09;;;;;;;0.10;0.10;;;9.40;99.90;;;;;;6219872;22;20498;-82
2023/04/29 06:13:53;;;;;;;0.17;0.17;;;10.60;99.90;;;;;;6246781;22;20020;-82
2023/04/29 06:16:19;;;;;;;0.10;0.10;;;9.50;99.90;;;;;;6271148;22;20020;-81
2023/04/29 06:18:45;;;;;;;0.10;0.10;;;9.50;99.90;;;;;;6241011;22;20097;-79
2023/04/29 06:21:16;;;;;;;0.20;0.20;;;9.50;99.90;;;;;;6214269;23;20020;-82
2023/04/29 06:23:42;;;;;;;0.10;0.10;;;8.60;99.90;;;;;;6241679;23;20081;-80
2023/04/29 06:26:20;;;;;;;0.20;0.20;;;9.60;99.90;;;;;;6214282;23;20529;-81
2023/04/29 06:35:30;;;;;;;0.10;0.10;;;9.70;99.90;;;;;;6214043;22;20024;-81
2023/04/29 06:38:20;;;;;;;0.10;0.10;;;9.70;99.90;;;;;;6184788;23;20021;-82
2023/04/29 06:40:46;;;;;;;0.10;0.10;;;10.10;99.90;;;;;;6185774;23;20321;-82
2023/04/29 06:43:12;;;;;;;0.10;0.10;;;8.50;99.90;;;;;;6186846;23;20095;-81
2023/04/29 06:46:04;;;;;;;0.20;0.20;;;9.80;99.90;;;;;;6210637;23;20017;-81
2023/04/29 06:48:33;;;;;;;0.10;0.10;;;9.80;99.90;;;;;;6184727;23;20017;-81
2023/04/29 06:57:41;;;;;;;0.10;0.10;;;9.80;99.90;;;;;;6245072;22;20012;-82
2023/04/29 07:00:21;;;;;;;0.10;0.10;;;10.00;99.90;;;;;;6231114;23;20341;-84
2023/04/29 07:06:35;;;;;;;0.10;0.10;;;10.00;99.90;;;;;;6269504;22;20027;-82
2023/04/29 07:09:01;;;;;;;0.10;0.10;;;11.00;99.90;;;;;;6220339;23;20023;-83
2023/04/29 07:11:52;;;;;;;0.10;0.10;;;10.10;99.90;;;;;;6211729;23;20056;-83
2023/04/29 07:14:25;;;;;;;0.10;0.10;;;10.20;99.90;;;;;;6207623;23;20024;-84
2023/04/29 07:16:54;;;;;;;0.13;0.13;;;10.20;99.90;;;;;;6210831;23;20052;-82
2023/04/29 07:19:20;;;;;;;0.10;0.10;;;10.30;99.90;;;;;;6209341;23;20067;-82
2023/04/29 07:21:46;;;;;;;0.10;0.10;;;11.30;99.90;;;;;;6210758;23;20020;-83
2023/04/29 07:24:12;;;;;;;0.10;0.10;;;10.30;99.90;;;;;;6209677;23;20086;-84
2023/04/29 07:26:43;;;;;;;0.10;0.10;;;10.40;99.90;;;;;;6210318;23;20055;-88
2023/04/29 07:29:27;;;;;;;0.10;0.10;;;10.90;99.90;;;;;;6211174;22;20020;-84
2023/04/29 07:32:59;;;;;;;0.20;0.20;;;10.40;99.90;;;;;;6237590;23;20031;-83
2023/04/29 07:35:25;;;;;;;0.10;0.10;;;10.50;99.90;;;;;;6248343;22;20023;-83
2023/04/29 07:37:51;;;;;;;0.10;0.10;;;9.80;99.90;;;;;;6246007;22;20634;-83
2023/04/29 07:40:17;;;;;;;0.10;0.10;;;10.50;99.90;;;;;;6281053;22;20019;-85
2023/04/29 07:42:43;;;;;;;0.10;0.10;;;10.80;99.90;;;;;;6249084;22;20034;-85
2023/04/29 07:45:09;;;;;;;0.20;0.20;;;10.70;99.90;;;;;;6245861;22;20050;-83
2023/04/29 07:47:38;;;;;;;0.10;0.10;;;10.70;99.90;;;;;;6245953;22;20099;-82
2023/04/29 07:50:04;;;;;;;0.20;0.20;;;10.70;99.90;;;;;;6274167;22;20026;-84
2023/04/29 07:52:36;;;;;;;0.10;0.10;;;10.80;99.90;;;;;;6245209;22;20011;-82
2023/04/29 07:55:02;;;;;;;0.10;0.10;;;10.80;99.90;;;;;;6274596;22;20026;-82
2023/04/29 07:57:28;;;;;;;0.20;0.20;;;10.80;99.90;;;;;;6275613;22;20016;-81
2023/04/29 08:00:12;;;;;;;0.20;0.20;;;10.80;99.90;;;;;;6273568;22;20051;-83
2023/04/29 08:03:21;;;;;;;0.17;0.17;;;10.80;99.90;;;;;;6247426;22;20015;-83
2023/04/29 08:23:42;;;;;;;0.10;0.10;;;11.20;99.90;;;;;;6156136;23;20017;-84
2023/04/29 08:26:36;;;;;;;0.20;0.20;;;11.20;99.90;;;;;;6129110;23;20025;-83
2023/04/29 08:35:18;;;;;;;0.20;0.20;;;11.40;99.90;;;;;;6214807;23;20048;-84
2023/04/29 08:41:16;;;;;;;0.10;0.10;;;11.10;99.90;;;;;;6215876;23;20017;-83
2023/04/29 08:46:51;;;;;;;0.10;0.10;;;11.60;99.90;;;;;;6257328;22;20024;-83
2023/04/29 08:49:17;;;;;;;0.15;0.15;;;11.70;99.90;;;;;;6301518;22;20028;-82
2023/04/29 08:52:11;;;;;;;0.20;0.20;;;11.60;99.90;;;;;;6294349;22;20293;-85
2023/04/29 08:55:10;;;;;;;0.10;0.10;;;11.60;99.90;;;;;;6246417;22;20020;-89
2023/04/29 08:58:19;;;;;;;0.10;0.10;;;11.50;99.90;;;;;;6275705;22;20043;-82
2023/04/29 09:00:45;;;;;;;0.10;0.10;;;11.50;99.90;;;;;;6247240;22;20016;-85
2023/04/29 09:06:42;;;;;;;0.10;0.10;;;11.70;99.90;;;;;;6252347;22;20020;-83
2023/04/29 09:09:13;;;;;;;0.10;0.10;;;12.00;99.90;;;;;;6274066;22;20086;-84
2023/04/29 09:11:57;;;;;;;0.10;0.10;;;11.70;99.90;;;;;;6274816;22;20027;-84
2023/04/29 09:14:42;;;;;;;0.20;0.20;;;11.60;99.90;;;;;;6246106;22;20421;-82
2023/04/29 09:17:15;;;;;;;0.10;0.10;;;11.20;99.90;;;;;;6274822;22;20007;-84
2023/04/29 09:19:55;;;;;;;0.10;0.10;;;11.80;99.90;;;;;;6274905;22;20027;-82
2023/04/29 09:22:25;;;;;;;0.10;0.10;;;11.80;99.90;;;;;;6274886;22;20138;-82
2023/04/29 09:25:30;;;;;;;0.15;0.15;;;11.90;99.90;;;;;;6274761;22;20047;-86
2023/04/29 09:28:26;;;;;;;0.10;0.10;;;11.90;99.90;;;;;;6275353;22;20077;-86
2023/04/29 09:31:06;;;;;;;0.20;0.20;;;11.90;99.90;;;;;;6245403;22;20494;-88
2023/04/29 09:34:22;;;;;;;0.10;0.10;;;12.00;99.90;;;;;;6275057;22;20014;-83
2023/04/29 09:36:49;;;;;;;0.20;0.20;;;11.90;99.90;;;;;;6179781;23;20072;-84
2023/04/29 09:39:19;;;;;;;0.10;0.10;;;12.10;99.90;;;;;;6180272;23;20039;-84
2023/04/29 09:41:58;;;;;;;0.10;0.10;;;12.10;99.90;;;;;;6179715;23;20073;-84
2023/04/29 09:44:37;;;;;;;0.20;0.20;;;12.30;99.90;;;;;;6154180;23;20846;-84
2023/04/29 09:47:36;;;;;;;0.10;0.10;;;12.20;99.90;;;;;;6147362;23;20318;-84
2023/04/29 09:50:27;;;;;;;0.20;0.20;;;11.90;99.90;;;;;;6183666;23;20032;-84
2023/04/29 09:56:45;;;;;;;0.10;0.10;;;12.30;99.90;;;;;;6154542;23;20048;-86
2023/04/29 09:59:38;;;;;;;0.13;0.13;;;12.40;99.90;;;;;;6179146;23;20490;-87
2023/04/29 10:02:47;;;;;;;0.10;0.10;;;12.40;99.90;;;;;;6179921;23;20104;-85
2023/04/29 10:09:06;;;;;;;0.10;0.10;;;12.50;99.90;;;;;;6273499;22;20019;-85
2023/04/29 10:15:16;;;;;;;0.20;0.20;;;12.50;99.90;;;;;;6246341;22;20102;-87
2023/04/29 10:18:14;;;;;;;0.20;0.20;;;13.00;99.90;;;;;;6231463;22;20034;-86
2023/04/29 10:21:32;;;;;;;0.10;0.10;;;12.50;99.90;;;;;;6121231;23;20094;-84
2023/04/29 10:27:15;;;;;;;0.10;0.10;;;12.70;99.90;;;;;;6243508;22;20028;-86
2023/04/29 10:29:43;;;;;;;0.13;0.13;;;12.60;99.90;;;;;;6266881;23;20072;-86
2023/04/29 10:43:00;;;;;;;0.20;0.20;;;12.40;99.90;;;;;;6242751;23;20018;-88
2023/04/29 10:46:05;;;;;;;0.10;0.10;;;13.20;99.90;;;;;;6215342;23;20023;-87
2023/04/29 10:52:16;;;;;;;0.13;0.13;;;12.80;99.90;;;;;;6243345;23;20015;-87
2023/04/29 10:55:13;;;;;;;0.10;0.10;;;13.50;99.90;;;;;;6242787;23;20069;-86
2023/04/29 10:58:01;;;;;;;0.10;0.10;;;13.30;99.90;;;;;;6218153;23;20336;-87
2023/04/29 11:01:10;;;;;;;0.20;0.20;;;13.60;99.90;;;;;;6244494;23;20012;-89
2023/04/29 11:04:22;;;;;;;0.10;0.10;;;13.70;99.90;;;;;;6216140;23;20052;-89
2023/04/29 11:07:35;;;;;;;0.10;0.10;;;14.50;99.90;;;;;;6215907;23;20463;-84
2023/04/29 11:10:05;;;;;;;0.10;0.10;;;13.80;99.90;;;;;;6215217;23;20107;-88
2023/04/29 11:12:40;;;;;;;0.13;0.13;;;13.90;99.90;;;;;;6224707;23;20023;-87
2023/04/29 11:15:17;;;;;;;0.10;0.10;;;14.00;99.90;;;;;;6253040;23;20023;-90
2023/04/29 11:17:45;;;;;;;0.15;0.15;;;14.00;99.90;;;;;;6218257;23;20099;-88
2023/04/29 11:20:17;;;;;;;0.10;0.10;;;14.00;99.90;;;;;;6245960;23;20039;-88
2023/04/29 11:22:56;;;;;;;0.10;0.10;;;14.20;99.90;;;;;;6217032;23;20048;-87
2023/04/29 11:25:25;;;;;;;0.10;0.10;;;14.20;99.90;;;;;;6220692;23;20016;-92
2023/04/29 11:27:54;;;;;;;0.10;0.10;;;14.40;99.90;;;;;;6244137;23;20087;-86
2023/04/29 11:30:50;;;;;;;0.10;0.10;;;14.20;99.90;;;;;;6214444;23;20051;-88
2023/04/29 11:33:38;;;;;;;0.10;0.10;;;15.70;99.90;;;;;;6218024;23;20016;-89
2023/04/29 11:39:22;;;;;;;0.15;0.15;;;14.30;99.90;;;;;;6243185;23;20027;-82
2023/04/29 11:42:10;;;;;;;0.20;0.20;;;14.40;99.90;;;;;;6216682;23;20082;-85
2023/04/29 11:44:36;;;;;;;0.20;0.20;;;14.60;99.90;;;;;;6215381;23;20027;-89
2023/04/29 11:47:03;;;;;;;0.20;0.20;;;14.50;99.90;;;;;;6191203;23;20043;-83
2023/04/29 11:49:33;;;;;;;0.13;0.13;;;14.60;99.90;;;;;;6243850;23;20012;-83
2023/04/29 11:52:00;;;;;;;0.10;0.10;;;14.80;99.90;;;;;;6214919;23;20023;-84
2023/04/29 11:54:40;;;;;;;0.10;0.10;;;14.70;99.90;;;;;;6216291;23;20026;-88
2023/04/29 11:57:18;;;;;;;0.17;0.17;;;14.70;99.90;;;;;;6230963;23;20417;-91
2023/04/29 11:59:45;;;;;;;0.20;0.20;;;14.90;99.90;;;;;;6246696;23;20046;-92
2023/04/29 12:02:12;;;;;;;0.20;0.20;;;14.90;99.90;;;;;;6246129;23;20016;-86
2023/04/29 12:05:17;;;;;;;0.17;0.17;;;15.00;99.90;;;;;;6242173;23;20027;-89
2023/04/29 12:07:58;;;;;;;0.10;0.10;;;15.40;99.90;;;;;;6221444;23;20155;-90
2023/04/29 12:10:24;;;;;;;0.13;0.13;;;15.30;99.90;;;;;;6233524;23;20047;-88
2023/04/29 12:12:50;;;;;;;0.10;0.10;;;15.10;99.90;;;;;;6269488;22;20046;-84
2023/04/29 12:15:22;;;;;;;0.15;0.15;;;15.10;99.90;;;;;;6254766;23;20016;-92
2023/04/29 12:17:51;;;;;;;0.10;0.10;;;15.20;99.90;;;;;;6218057;23;20016;-92
2023/04/29 12:20:19;;;;;;;0.10;0.10;;;15.20;99.90;;;;;;6218628;23;20056;-88
2023/04/29 12:22:52;;;;;;;0.10;0.10;;;15.20;99.50;;;;;;6217400;23;20024;-89
2023/04/29 12:25:19;;;;;;;0.20;0.20;;;15.30;99.90;;;;;;6218452;23;20027;-85
2023/04/29 12:27:50;;;;;;;0.10;0.10;;;15.40;99.90;;;;;;6218317;23;20020;-87
2023/04/29 12:30:22;;;;;;;0.20;0.20;;;15.50;99.90;;;;;;6216381;23;20399;-85
2023/04/29 12:33:01;;;;;;;0.10;0.10;;;15.60;99.40;;;;;;6217061;23;20012;-88
2023/04/29 12:35:44;;;;;;;0.20;0.20;;;15.70;99.90;;;;;;6244444;23;20075;-86
2023/04/29 12:38:42;;;;;;;0.10;0.10;;;15.80;99.90;;;;;;6221698;23;20086;-86
2023/04/29 12:41:16;;;;;;;0.20;0.20;;;15.90;99.90;;;;;;6219646;23;20131;-84
2023/04/29 12:43:45;;;;;;;0.10;0.10;;;16.10;99.90;;;;;;6217012;23;20444;-85
2023/04/29 12:46:25;;;;;;;0.15;0.15;;;16.10;99.70;;;;;;6215536;23;20026;-84
2023/04/29 12:48:54;;;;;;;0.20;0.20;;;16.30;99.90;;;;;;6217722;23;20020;-85
2023/04/29 12:51:20;;;;;;;0.13;0.13;;;16.40;99.40;;;;;;6217233;23;20020;-85
2023/04/29 12:54:06;;;;;;;0.10;0.10;;;16.50;99.20;;;;;;6215593;23;20506;-84
2023/04/29 12:56:47;;;;;;;0.20;0.20;;;16.60;99.30;;;;;;6216851;23;20099;-86
2023/04/29 12:59:13;;;;;;;;;;;16.70;99.20;;;;;;6215556;23;20520;-87
2023/04/29 13:01:38;;;;;;;0.20;0.20;;;16.70;99.50;;;;;;6216529;23;19947;-88
2023/04/29 13:04:07;;;;;;;0.20;0.20;;;16.70;99.30;;;;;;6241887;22;20027;-83
2023/04/29 13:06:38;;;;;;;0.20;0.20;;;16.60;99.40;;;;;;6244516;23;20359;-87
2023/04/29 13:09:16;;;;;;;0.20;0.20;;;16.80;99.20;;;;;;6215525;23;20111;-86
2023/04/29 13:11:42;;;;;;;0.20;0.20;;;16.90;99.50;;;;;;6216387;23;20352;-88
2023/04/29 13:14:11;;;;;;;0.20;0.20;;;16.90;99.10;;;;;;6242607;23;20020;-85
2023/04/29 13:16:37;;;;;;;0.20;0.20;;;17.00;99.30;;;;;;6243320;23;20020;-85
2023/04/29 13:19:15;;;;;;;0.10;0.10;;;16.90;98.70;;;;;;6243963;23;20023;-84
2023/04/29 13:21:55;;;;;;;0.10;0.10;;;16.90;99.20;;;;;;6250408;23;20495;-84
2023/04/29 13:24:21;;;;;;;0.10;0.10;;;17.00;99.30;;;;;;6218193;23;20163;-85
2023/04/29 13:26:47;;;;;;;0.10;0.10;;;17.00;99.60;;;;;;6217863;23;20495;-89
2023/04/29 13:29:16;;;;;;;0.20;0.20;;;17.10;99.00;;;;;;6215170;23;20020;-85
2023/04/29 13:31:42;;;;;;;0.20;0.20;;;17.00;98.60;;;;;;6216889;23;20014;-87
2023/04/29 13:34:08;;;;;;;0.20;0.20;;;17.00;98.90;;;;;;6217135;23;20042;-87
2023/04/29 13:36:37;;;;;;;0.20;0.20;;;17.00;98.80;;;;;;6243429;23;20091;-85
2023/04/29 13:39:16;;;;;;;0.20;0.20;;;16.90;98.90;;;;;;6242961;23;20016;-85
2023/04/29 13:41:48;;;;;;;0.20;0.20;;;16.90;99.00;;;;;;6217636;23;20090;-87
2023/04/29 13:44:19;;;;;;;0.20;0.20;;;16.90;98.80;;;;;;6215500;23;20017;-87
2023/04/29 13:46:45;;;;;;;0.10;0.10;;;16.80;98.70;;;;;;6245916;23;20020;-84
2023/04/29 13:49:13;;;;;;;0.20;0.20;;;16.90;99.10;;;;;;6245643;23;20156;-88
2023/04/29 13:51:45;;;;;;;0.20;0.20;;;16.90;98.90;;;;;;6223018;23;20016;-90
2023/04/29 13:54:10;;;;;;;;;;;17.20;99.00;;;;;;6243372;22;20019;-86
2023/04/29 13:56:36;;;;;;;0.20;0.20;;;16.90;99.30;;;;;;6237516;22;20299;-89
2023/04/29 13:59:11;;;;;;;0.20;0.20;;;16.90;99.30;;;;;;6216992;23;20016;-91
2023/04/29 14:01:39;;;;;;;0.20;0.20;;;16.90;99.50;;;;;;6243917;23;20020;-88
2023/04/29 14:04:17;;;;;;;0.20;0.20;;;16.90;99.00;;;;;;6231327;23;20055;-88
2023/04/29 14:06:45;;;;;;;0.10;0.10;;;16.90;99.00;;;;;;6246215;23;20095;-90
2023/04/29 14:09:11;;;;;;;0.10;0.10;;;16.80;99.20;;;;;;6242696;23;20024;-90
2023/04/29 14:11:40;;;;;;;0.20;0.20;;;16.90;99.70;;;;;;6215139;23;20024;-87
2023/04/29 14:14:06;;;;;;;0.10;0.10;;;17.00;99.90;;;;;;6189638;23;20052;-89
2023/04/29 14:16:34;;;;;;;0.10;0.10;;;17.00;99.10;;;;;;6215760;23;20019;-88
2023/04/29 14:19:03;;;;;;;0.20;0.20;;;16.80;99.10;;;;;;6215226;23;20511;-86
2023/04/29 14:22:04;;;;;;;0.20;0.20;;;16.80;99.60;;;;;;6217294;23;20016;-88
2023/04/29 14:24:29;;;;;;;0.20;0.20;;;16.70;98.70;;;;;;6177363;23;20020;-87
2023/04/29 14:26:56;;;;;;;0.20;0.20;;;16.60;99.90;;;;;;6217845;23;20111;-90
2023/04/29 14:29:22;;;;;;;0.20;0.20;;;16.70;99.90;;;;;;6213749;23;20311;-89
2023/04/29 14:31:48;;;;;;;0.15;0.15;;;16.70;99.90;;;;;;6243286;23;20078;-90
2023/04/29 14:34:25;;;;;;;0.20;0.20;;;16.70;99.70;;;;;;6216388;23;20044;-89
2023/04/29 14:36:51;;;;;;;0.20;0.20;;;16.60;98.80;;;;;;6242714;23;20065;-86
2023/04/29 14:39:17;;;;;;;0.10;0.10;;;16.50;99.30;;;;;;6213785;23;20016;-87
2023/04/29 14:41:43;;;;;;;0.17;0.17;;;16.40;99.30;;;;;;6216949;23;20012;-88
2023/04/29 14:44:09;;;;;;;0.17;0.17;;;16.20;99.30;;;;;;6243578;23;20480;-90
2023/04/29 14:46:35;;;;;;;0.20;0.20;;;16.10;99.60;;;;;;6255332;23;20083;-86
2023/04/29 14:49:01;;;;;;;0.20;0.20;;;16.10;99.50;;;;;;6243969;23;20487;-87
2023/04/29 14:51:27;;;;;;;0.10;0.10;;;16.00;98.90;;;;;;6215957;23;20016;-86
2023/04/29 14:53:52;;;;;;;0.20;0.20;;;15.70;99.00;;;;;;6241170;23;20019;-88
2023/04/29 14:56:18;;;;;;;0.10;0.10;;;15.50;99.20;;;;;;6215996;23;20099;-91
2023/04/29 14:58:47;;;;;;;0.15;0.15;;;15.50;99.90;;;;;;6217398;23;20019;-86
2023/04/29 15:01:12;;;;;;;0.10;0.10;;;15.60;99.80;;;;;;6210796;23;20020;-85
2023/04/29 15:03:41;;;;;;;0.10;0.10;;;15.50;99.90;;;;;;6215988;23;20103;-87
2023/04/29 15:06:07;;;;;;;0.10;0.10;;;15.30;99.30;;;;;;6220389;22;20020;-89